Parmele, North Carolina
Current Conditions -  °F | °C
As of 6:10 AM on Tuesday 21 Oct 2014 (Local Time) from KPGV Reporting Station
Clear Clear  
Wind Chill: 55°   Ceiling: Unl
Heat Index: 55°   Visibility: 10mi
Dew Point: 55°   Wind: 0mph
Humidity: 100%   Direction: NA
Pressure: 29.95"   Gusts: NA
Location:  35.82°N, 77.31°W
Report Text: KPGV 211010Z AUTO 00000KT 10SM CLR 13/13 A2995 RMK AO2
Loading
Personal Weather Stations






























Interactive Weather Map
Tropical Storm Tracking
New forecast layout! Learn more

10-Day Weather Forecast

Advertisements
Track Severe Weather on mobile